ADDS METAR Data INFO
IDs: Format: Raw Decoded Include TAF

Data at: 0840 UTC 21 Oct 2017

KPTN 210823Z AUTO 08005KT 10SM BKN008 BKN026 BKN031 23/22 A3001 RMK AO2 CIG 006V012
KPTN 210812Z AUTO 08005KT 10SM FEW008 SCT029 23/22 A3001 RMK AO2
KPTN 210756Z AUTO 08007KT 10SM SCT022 SCT029 BKN044 23/22 A3001 RMK AO2 SLP161 T02280222
KPTN 210656Z AUTO 09004KT 10SM BKN022 23/22 A3003 RMK AO2 SLP169 T02330222
KPTN 210649Z AUTO 08005KT 10SM FEW007 BKN022 23/22 A3003 RMK AO2
KPTN 210626Z AUTO 08005KT 10SM FEW007 23/22 A3002 RMK AO2
KPTN 210556Z AUTO 10004KT 10SM CLR 23/22 A3003 RMK AO2 SLP169 T02280222 10244 20228 55007
KPTN 210456Z AUTO 10008KT 10SM SCT009 23/22 A3002 RMK AO2 SLP166 T02330222 402780194
KPTN 210440Z AUTO 11008KT 10SM BKN009 23/22 A3003 RMK AO2
KPTN 210426Z AUTO 10009KT 10SM SCT009 23/22 A3003 RMK AO2
KPTN 210356Z AUTO 10009KT 10SM FEW015 23/22 A3003 RMK AO2 SLP171 T02330222
KPTN 210256Z AUTO 10007KT 10SM CLR 23/22 A3005 RMK AO2 SLP176 T02330217 51005
KPTN 210156Z AUTO 09007KT 10SM CLR 23/21 A3004 RMK AO2 SLP173 T02330211
KPTN 210110Z AUTO 08006KT 10SM SCT022 BKN035 24/22 A3005 RMK AO2
KPTN 210056Z AUTO 07005KT 8SM BKN024 BKN035 24/22 A3005 RMK AO2 SLP177 T02390217
KPTN 210029Z AUTO 06004KT 10SM BKN026 23/21 A3004 RMK AO2
KPTN 202356Z AUTO 07004KT 10SM CLR 24/21 A3003 RMK AO2 SLP170 T02390211 10278 20239 53000
KPTN 202256Z AUTO 10004KT 10SM CLR 25/21 A3002 RMK AO2 SLP166 T02500211
KPTN 202156Z AUTO 11006KT 10SM CLR 27/21 A3002 RMK AO2 SLP167 T02670206
KPTN 202056Z AUTO 12005KT 10SM CLR 27/21 A3003 RMK AO2 SLP170 T02720206 56016
KPTN 201956Z AUTO 10008KT 10SM SCT034 27/21 A3004 RMK AO2 SLP173 T02720206
KPTN 201856Z AUTO 11006KT 10SM SCT027 BKN035 27/21 A3005 RMK AO2 SLP178 T02670211 TSNO
KPTN 201756Z AUTO 08010KT 10SM CLR 26/21 A3008 RMK AO2 SLP186 T02610211 10267 20194 58025
KPTN 201656Z AUTO 08007KT 10SM CLR 25/21 A3011 RMK AO2 SLP197 T02500206
KPTN 201556Z AUTO 09009KT 10SM CLR 24/21 A3014 RMK AO2 SLP207 T02440206
KPTN 201456Z AUTO 09009KT 10SM CLR 23/20 A3015 RMK AO2 SLP212 T02280200 53007
KPTN 201356Z AUTO 08010KT 10SM CLR 22/19 A3013 RMK AO2 SLP205 T02170194
KPTN 201256Z AUTO 07007KT 10SM CLR 20/19 A3013 RMK AO2 SLP202 T02000189
KPTN 201156Z AUTO 07005KT 10SM CLR 19/18 A3013 RMK AO2 SLP204 T01940183 10217 20194 53005
KPTN 201056Z AUTO 08005KT 10SM CLR 19/18 A3012 RMK AO2 SLP202 T01940183
KPTN 200956Z AUTO 06005KT 10SM CLR 20/19 A3012 RMK AO2 SLP200 T02000189
KPTN 200856Z AUTO 09003KT 10SM CLR 21/19 A3012 RMK AO2 SLP199 T02060189 55007
KPTN 200756Z AUTO 08005KT 10SM CLR 21/19 A3011 RMK AO2 SLP198 T02110194
KPTN 200656Z AUTO 09006KT 10SM CLR 21/19 A3013 RMK AO2 SLP202 T02110194
KPTN 200556Z AUTO 09006KT 10SM CLR 21/20 A3014 RMK AO2 SLP206 T02110200 10250 20211 58005
KPTN 200456Z AUTO 09007KT 10SM CLR 22/20 A3015 RMK AO2 SLP209 T02170200 402890150
KPTN 200356Z AUTO 09005KT 10SM CLR 22/20 A3015 RMK AO2 SLP211 T02170200
KPTN 200256Z AUTO 09006KT 10SM CLR 22/20 A3015 RMK AO2 SLP211 T02170200 53012
KPTN 200156Z AUTO 10007KT 10SM CLR 22/20 A3014 RMK AO2 SLP206 T02220200
KPTN 200056Z AUTO 10006KT 10SM CLR 23/21 A3013 RMK AO2 SLP202 T02330206
KPTN 192356Z AUTO 10009KT 10SM SCT037 24/20 A3012 RMK AO2 SLP199 T02440200 10289 20244 53006
KPTN 192256Z AUTO 08008KT 10SM BKN044 26/19 A3010 RMK AO2 SLP193 T02610194
KPTN 192156Z AUTO 07008KT 10SM FEW043 28/19 A3010 RMK AO2 SLP193 T02780194
KPTN 192056Z AUTO 08006KT 10SM CLR 28/19 A3010 RMK AO2 SLP193 T02830194 56018